Archival Weather

Dallas-Fort Worth Intl

Dallas-Fort Worth, Texas (KDFW)

Report from: Thursday, September 21, 2023 11:53 AM CDT
Current time: Sunday, February 25, 2024 4:23 PM CST

Current weather – Weather history – Daily summaries
Weather forecast

Temperature31.7°C (89.1°F)
Heat index36.2°C (97.2°F)
Dew point22.8°C (73.0°F)
Winds 13 kts (6.7 m/s, 15 mph) South-Southeast (160°)
Visibility10 mi. (16.1 km)
Clouds Few clouds 3,000 ft. (914 m)
Ceiling: Broken clouds 25,000 ft. (7,620 m)
Altimeter30.01 in.Hg (1016 mB)
Relative humidity59 %
Density altitude2,214 ft. (675 m)
Sea-level pressure101.5 kPa (1015 mB, 29.98 in.Hg)
Remarks Automated weather observing station with precipitation discriminator
Flight conditions Visual Meteorological Conditions
Raw dataKDFW 211653Z 16013KT 10SM FEW030 BKN250 32/23 A3001 RMK AO2 SLP152 T03170228
An error has occurred. This application may no longer respond until reloaded. Reload 🗙